Time;durP1;ratioP1;P1;durP2;ratioP2;P2;SDS_P1;SDS_P2;PMS_P1;PMS_P2;Temp;Humidity;BMP_temperature;BMP_pressure;BME280_temperature;BME280_humidity;BME280_pressure;Samples;Min_cycle;Max_cycle;Signal;HPM_P1;HPM_P2
2023/04/21 00:00:11;;;;;;;2.90;2.50;;;13.00;77.90;;;;;;5025799;28;21154;-66
2023/04/21 00:02:40;;;;;;;3.40;3.10;;;13.00;78.00;;;;;;5007575;28;20473;-65
2023/04/21 00:05:11;;;;;;;3.90;3.27;;;12.90;77.80;;;;;;5018526;28;20471;-65
2023/04/21 00:07:41;;;;;;;3.40;2.60;;;13.00;78.00;;;;;;5023725;28;20477;-65
2023/04/21 00:10:10;;;;;;;3.03;2.70;;;12.90;77.90;;;;;;5024448;28;20503;-66
2023/04/21 00:12:40;;;;;;;3.10;2.67;;;12.90;78.00;;;;;;5021884;28;21012;-65
2023/04/21 00:15:09;;;;;;;3.00;2.70;;;12.90;77.90;;;;;;5008215;28;20429;-65
2023/04/21 00:17:38;;;;;;;2.97;2.53;;;12.90;78.00;;;;;;5006062;28;21044;-66
2023/04/21 00:20:09;;;;;;;4.53;3.30;;;12.90;78.00;;;;;;5006942;28;20468;-65
2023/04/21 00:22:37;;;;;;;3.63;2.77;;;12.90;78.00;;;;;;5007495;28;20473;-66
2023/04/21 00:25:08;;;;;;;3.87;3.57;;;12.90;78.00;;;;;;5008721;28;20986;-65
2023/04/21 00:27:36;;;;;;;3.10;2.80;;;12.90;78.00;;;;;;5017676;28;20453;-67
2023/04/21 00:30:06;;;;;;;3.57;2.80;;;12.90;78.00;;;;;;5024321;28;20449;-65
2023/04/21 00:32:37;;;;;;;3.13;2.83;;;12.90;78.10;;;;;;5023268;28;20450;-65
2023/04/21 00:35:06;;;;;;;3.00;2.57;;;12.90;78.10;;;;;;5008228;28;20426;-65
2023/04/21 00:37:34;;;;;;;2.63;2.30;;;12.90;78.20;;;;;;5014680;28;20491;-66
2023/04/21 00:40:04;;;;;;;3.70;2.93;;;12.90;78.10;;;;;;5019670;28;20474;-66
2023/04/21 00:42:34;;;;;;;2.93;2.50;;;12.90;78.20;;;;;;5004150;28;20476;-65
2023/04/21 00:45:03;;;;;;;3.23;2.93;;;12.90;78.20;;;;;;5005625;28;20434;-66
2023/04/21 00:47:31;;;;;;;3.17;2.67;;;12.90;78.20;;;;;;5028286;28;20546;-65
2023/04/21 00:50:00;;;;;;;3.20;2.90;;;12.90;78.20;;;;;;5016643;28;20487;-65
2023/04/21 00:52:28;;;;;;;4.10;3.47;;;12.90;78.20;;;;;;5025183;28;20533;-65
2023/04/21 00:54:57;;;;;;;3.40;3.00;;;12.90;78.30;;;;;;5024254;28;20788;-66
2023/04/21 00:57:27;;;;;;;2.90;2.53;;;12.90;78.30;;;;;;5004877;28;20475;-65
2023/04/21 00:59:57;;;;;;;3.43;2.93;;;12.90;78.20;;;;;;4998364;28;20889;-65
2023/04/21 01:02:27;;;;;;;3.10;2.80;;;12.90;78.20;;;;;;5000675;28;20448;-65
2023/04/21 01:04:56;;;;;;;4.10;2.77;;;12.80;78.20;;;;;;5013478;28;21269;-65
2023/04/21 01:07:25;;;;;;;3.50;3.13;;;12.90;78.40;;;;;;5022292;28;20438;-65
2023/04/21 01:09:53;;;;;;;3.37;3.07;;;12.80;78.30;;;;;;5023643;28;20539;-65
2023/04/21 01:12:23;;;;;;;3.17;2.87;;;12.90;78.30;;;;;;5022376;28;20875;-65
2023/04/21 01:14:51;;;;;;;3.80;2.93;;;12.80;78.30;;;;;;5016462;28;20444;-66
2023/04/21 01:17:21;;;;;;;3.60;3.23;;;12.90;78.30;;;;;;5006074;28;21043;-66
2023/04/21 01:19:51;;;;;;;3.57;2.80;;;12.80;78.20;;;;;;5022777;28;20469;-66
2023/04/21 01:22:21;;;;;;;2.63;2.30;;;12.80;78.20;;;;;;5005761;28;20466;-65
2023/04/21 01:24:50;;;;;;;3.23;2.87;;;12.80;78.20;;;;;;5006678;28;20468;-65
2023/04/21 01:27:20;;;;;;;3.20;2.77;;;12.90;78.40;;;;;;5021876;28;20464;-66
2023/04/21 01:29:50;;;;;;;3.80;2.80;;;12.80;78.30;;;;;;5023097;28;20435;-66
2023/04/21 01:32:21;;;;;;;3.80;3.40;;;12.80;78.30;;;;;;5005284;28;20463;-66
2023/04/21 01:34:50;;;;;;;2.87;2.30;;;12.80;78.30;;;;;;5022600;28;20445;-65
2023/04/21 01:37:22;;;;;;;3.53;2.90;;;12.80;78.20;;;;;;5022598;28;20530;-65
2023/04/21 01:39:54;;;;;;;2.70;2.37;;;12.80;78.30;;;;;;5022724;28;20462;-67
2023/04/21 01:42:25;;;;;;;2.60;2.40;;;12.80;78.30;;;;;;5006502;28;20492;-65
2023/04/21 01:44:54;;;;;;;3.37;2.70;;;12.80;78.30;;;;;;5014761;28;20450;-66
2023/04/21 01:47:24;;;;;;;4.33;3.90;;;12.80;78.30;;;;;;5007317;28;21218;-67
2023/04/21 01:49:52;;;;;;;4.90;4.40;;;12.80;78.40;;;;;;5018285;28;20469;-66
2023/04/21 01:52:22;;;;;;;3.83;3.47;;;12.80;78.40;;;;;;5002707;28;20483;-66
2023/04/21 01:54:54;;;;;;;3.27;2.97;;;12.80;78.40;;;;;;5006706;28;20509;-65
2023/04/21 01:57:22;;;;;;;3.17;2.87;;;12.80;78.50;;;;;;5005966;28;20485;-66
2023/04/21 01:59:52;;;;;;;3.30;3.00;;;12.80;78.50;;;;;;5022919;28;20461;-65
2023/04/21 02:02:20;;;;;;;3.33;3.03;;;12.80;78.50;;;;;;4999702;28;20457;-65
2023/04/21 02:04:49;;;;;;;3.80;3.10;;;12.80;78.50;;;;;;5024149;28;20441;-65
2023/04/21 02:07:17;;;;;;;4.50;3.00;;;12.80;78.50;;;;;;5008317;28;20464;-65
2023/04/21 02:09:47;;;;;;;2.87;2.57;;;12.80;78.40;;;;;;5012216;28;20465;-65
2023/04/21 02:12:15;;;;;;;3.47;2.80;;;12.80;78.50;;;;;;5004481;28;20504;-66
2023/04/21 02:14:46;;;;;;;4.70;3.00;;;12.80;78.50;;;;;;5025561;28;20432;-64
2023/04/21 02:17:14;;;;;;;3.00;2.70;;;12.80;78.40;;;;;;5022912;28;20486;-66
2023/04/21 02:19:42;;;;;;;3.20;2.80;;;12.80;78.50;;;;;;5022674;28;20893;-65
2023/04/21 02:22:11;;;;;;;4.00;3.20;;;12.80;78.50;;;;;;5000752;28;20552;-66
2023/04/21 02:24:40;;;;;;;3.70;2.77;;;12.80;78.50;;;;;;5021002;28;20476;-66
2023/04/21 02:27:09;;;;;;;3.83;3.00;;;12.80;78.50;;;;;;5019215;28;20841;-65
2023/04/21 02:29:38;;;;;;;3.40;2.63;;;12.70;78.40;;;;;;5023983;28;20961;-65
2023/04/21 02:32:08;;;;;;;2.83;2.50;;;12.70;78.40;;;;;;5009836;28;20441;-65
2023/04/21 02:34:52;;;;;;;3.10;2.70;;;12.70;78.40;;;;;;5020469;28;20842;-65
2023/04/21 02:37:21;;;;;;;2.90;2.60;;;12.70;78.50;;;;;;4995930;28;20472;-64
2023/04/21 02:39:49;;;;;;;3.17;2.60;;;12.70;78.50;;;;;;5023459;28;21179;-66
2023/04/21 02:42:19;;;;;;;3.50;3.00;;;12.70;78.40;;;;;;5023418;28;20468;-65
2023/04/21 02:44:48;;;;;;;3.50;3.00;;;12.70;78.50;;;;;;5019978;28;20441;-66
2023/04/21 02:47:16;;;;;;;5.83;3.70;;;12.70;78.50;;;;;;5019327;28;20499;-66
2023/04/21 02:49:45;;;;;;;3.47;2.87;;;12.70;78.60;;;;;;5005531;28;20536;-65
2023/04/21 02:52:13;;;;;;;3.17;2.50;;;12.70;78.60;;;;;;5019317;28;20499;-66
2023/04/21 02:54:41;;;;;;;4.60;3.80;;;12.70;78.60;;;;;;5025342;28;20424;-64
2023/04/21 02:57:10;;;;;;;3.67;2.70;;;12.70;78.60;;;;;;5021956;28;20542;-65
2023/04/21 02:59:41;;;;;;;3.60;2.97;;;12.70;78.80;;;;;;5022848;28;20438;-65
2023/04/21 03:02:09;;;;;;;3.33;2.90;;;12.70;78.70;;;;;;5020043;28;20842;-64
2023/04/21 03:04:38;;;;;;;2.80;2.50;;;12.70;78.70;;;;;;5004377;28;20555;-65
2023/04/21 03:07:12;;;;;;;3.37;2.77;;;12.70;78.60;;;;;;5022215;28;20459;-66
2023/04/21 03:09:41;;;;;;;3.27;2.90;;;12.70;78.60;;;;;;5021340;28;20471;-65
2023/04/21 03:12:09;;;;;;;4.23;3.63;;;12.70;78.70;;;;;;5021021;28;20444;-65
2023/04/21 03:14:37;;;;;;;4.90;4.40;;;12.70;78.60;;;;;;5000823;28;20449;-64
2023/04/21 03:17:08;;;;;;;3.33;3.00;;;12.70;78.70;;;;;;5021120;28;21027;-65
2023/04/21 03:19:37;;;;;;;3.70;3.40;;;12.70;78.70;;;;;;5013819;28;20512;-66
2023/04/21 03:22:05;;;;;;;3.87;3.47;;;12.70;78.70;;;;;;5021764;28;20502;-64
2023/04/21 03:24:33;;;;;;;3.63;2.90;;;12.60;78.70;;;;;;5022396;28;20448;-65
2023/04/21 03:27:02;;;;;;;4.10;3.30;;;12.60;78.60;;;;;;5022218;28;20808;-66
2023/04/21 03:29:30;;;;;;;4.10;3.43;;;12.70;78.70;;;;;;4998991;28;20488;-65
2023/04/21 03:31:59;;;;;;;3.20;2.90;;;12.60;78.60;;;;;;5020590;28;20479;-65
2023/04/21 03:34:28;;;;;;;4.23;3.13;;;12.60;78.70;;;;;;5003954;28;20567;-65
2023/04/21 03:36:59;;;;;;;4.37;3.80;;;12.60;78.60;;;;;;4997761;28;20929;-65
2023/04/21 03:39:27;;;;;;;3.17;2.70;;;12.60;78.60;;;;;;5021157;28;20447;-65
2023/04/21 03:41:56;;;;;;;3.63;2.90;;;12.60;78.70;;;;;;5020262;28;20575;-66
2023/04/21 03:44:26;;;;;;;3.60;3.30;;;12.60;78.70;;;;;;5017955;28;20449;-66
2023/04/21 03:46:54;;;;;;;3.30;2.97;;;12.60;78.70;;;;;;5020511;28;20532;-65
2023/04/21 03:49:24;;;;;;;3.87;3.40;;;12.60;78.80;;;;;;5019516;28;20965;-67
2023/04/21 03:51:53;;;;;;;3.77;2.80;;;12.60;78.70;;;;;;5015454;28;20459;-65
2023/04/21 03:54:22;;;;;;;4.90;3.60;;;12.60;78.70;;;;;;5023547;28;20542;-66
2023/04/21 03:56:50;;;;;;;3.57;3.10;;;12.60;78.80;;;;;;5020729;28;20554;-65
2023/04/21 03:59:18;;;;;;;4.97;2.97;;;12.60;78.70;;;;;;5024905;28;20445;-66
2023/04/21 04:01:47;;;;;;;3.90;2.87;;;12.60;78.70;;;;;;5025455;28;20564;-65
2023/04/21 04:04:16;;;;;;;3.70;3.33;;;12.60;78.80;;;;;;5014653;28;20541;-65
2023/04/21 04:06:44;;;;;;;3.93;3.53;;;12.60;78.80;;;;;;5016730;28;20547;-65
2023/04/21 04:09:14;;;;;;;4.03;3.13;;;12.60;78.80;;;;;;4997836;28;20465;-65
2023/04/21 04:11:43;;;;;;;4.10;3.33;;;12.60;78.80;;;;;;5007673;28;20471;-66
2023/04/21 04:14:11;;;;;;;3.33;2.83;;;12.60;78.80;;;;;;5018027;28;20454;-66
2023/04/21 04:16:40;;;;;;;3.27;2.97;;;12.60;78.80;;;;;;5021693;28;20436;-65
2023/04/21 04:19:08;;;;;;;3.00;2.70;;;12.60;78.70;;;;;;5007007;28;20479;-65
2023/04/21 04:21:37;;;;;;;3.83;3.07;;;12.50;78.70;;;;;;5008438;28;20996;-65
2023/04/21 04:24:07;;;;;;;3.90;3.50;;;12.50;78.70;;;;;;5020264;28;20458;-65
2023/04/21 04:26:37;;;;;;;4.10;3.70;;;12.50;78.70;;;;;;4986474;28;20452;-64
2023/04/21 04:29:09;;;;;;;4.17;3.60;;;12.50;78.60;;;;;;5015188;28;20518;-65
2023/04/21 04:31:37;;;;;;;5.90;4.97;;;12.50;78.60;;;;;;5005717;28;20486;-65
2023/04/21 04:34:08;;;;;;;5.07;4.57;;;12.50;78.70;;;;;;5018981;28;20479;-65
2023/04/21 04:36:36;;;;;;;4.33;3.93;;;12.50;78.70;;;;;;5025862;28;20471;-66
2023/04/21 04:39:05;;;;;;;4.50;3.77;;;12.50;78.80;;;;;;5024129;28;20578;-66
2023/04/21 04:41:38;;;;;;;4.40;3.73;;;12.50;78.70;;;;;;5023679;28;20465;-65
2023/04/21 04:44:06;;;;;;;3.90;3.40;;;12.50;78.70;;;;;;5023042;28;20475;-65
2023/04/21 04:46:35;;;;;;;4.90;4.40;;;12.50;78.70;;;;;;5016739;28;20909;-65
2023/04/21 04:49:03;;;;;;;3.67;3.17;;;12.50;78.70;;;;;;5000245;28;20485;-65
2023/04/21 04:51:32;;;;;;;4.33;3.67;;;12.50;78.70;;;;;;5024549;28;21000;-66
2023/04/21 04:54:01;;;;;;;5.03;4.40;;;12.50;78.70;;;;;;5006904;28;20551;-66
2023/04/21 04:56:30;;;;;;;4.43;3.77;;;12.50;78.80;;;;;;5016022;28;20455;-65
2023/04/21 04:59:00;;;;;;;4.83;4.33;;;12.50;78.80;;;;;;5005138;28;20933;-66
2023/04/21 05:01:30;;;;;;;4.23;3.80;;;12.50;78.90;;;;;;5020878;28;20910;-66
2023/04/21 05:03:58;;;;;;;5.00;4.03;;;12.50;79.00;;;;;;5021438;28;20471;-65
2023/04/21 05:06:27;;;;;;;5.20;4.00;;;12.50;78.90;;;;;;5003269;28;20433;-65
2023/04/21 05:08:56;;;;;;;4.50;4.10;;;12.50;78.90;;;;;;5021605;28;20937;-65
2023/04/21 05:11:24;;;;;;;5.17;4.30;;;12.40;78.80;;;;;;5023607;28;20470;-65
2023/04/21 05:13:52;;;;;;;4.67;4.00;;;12.50;78.90;;;;;;5005751;28;20471;-66
2023/04/21 05:16:22;;;;;;;4.53;3.87;;;12.40;78.80;;;;;;5023921;28;20453;-64
2023/04/21 05:18:52;;;;;;;4.87;4.00;;;12.40;78.80;;;;;;5022188;28;20489;-65
2023/04/21 05:21:26;;;;;;;3.90;3.50;;;12.40;78.80;;;;;;5019254;28;20526;-65
2023/04/21 05:23:55;;;;;;;3.87;3.43;;;12.40;78.80;;;;;;5022903;28;20460;-65
2023/04/21 05:26:24;;;;;;;4.60;4.13;;;12.40;78.80;;;;;;5023503;28;20436;-65
2023/04/21 05:28:53;;;;;;;6.63;4.70;;;12.40;78.80;;;;;;5013644;28;20477;-65
2023/04/21 05:31:23;;;;;;;7.23;5.20;;;12.40;78.80;;;;;;5022735;28;20483;-65
2023/04/21 05:33:51;;;;;;;6.20;5.20;;;12.40;78.90;;;;;;5022688;28;20603;-66
2023/04/21 05:36:20;;;;;;;6.90;5.77;;;12.40;78.90;;;;;;5022990;28;20828;-66
2023/04/21 05:38:48;;;;;;;4.70;4.20;;;12.40;79.00;;;;;;5006080;28;20563;-66
2023/04/21 05:41:16;;;;;;;8.20;4.80;;;12.40;78.90;;;;;;5006504;28;20826;-66
2023/04/21 05:43:46;;;;;;;5.43;3.80;;;12.40;78.90;;;;;;5019762;28;20484;-65
2023/04/21 05:46:14;;;;;;;6.70;5.33;;;12.40;78.90;;;;;;5022952;28;20449;-65
2023/04/21 05:48:44;;;;;;;7.50;5.27;;;12.40;78.90;;;;;;5021743;28;20562;-65
2023/04/21 05:51:14;;;;;;;6.63;5.70;;;12.40;78.90;;;;;;5023297;28;20470;-65
2023/04/21 05:53:43;;;;;;;5.53;4.47;;;12.40;79.00;;;;;;5022325;28;20487;-66
2023/04/21 05:56:13;;;;;;;5.30;4.33;;;12.40;78.90;;;;;;5002444;28;20456;-65
2023/04/21 05:58:41;;;;;;;6.17;5.57;;;12.40;79.00;;;;;;5001432;28;20531;-66
2023/04/21 06:01:11;;;;;;;4.97;4.30;;;12.40;78.90;;;;;;5006535;28;20475;-65
2023/04/21 06:03:40;;;;;;;5.70;4.73;;;12.40;78.90;;;;;;5019707;28;20481;-65
2023/04/21 06:06:10;;;;;;;5.73;5.13;;;12.40;79.00;;;;;;5006538;28;20443;-65
2023/04/21 06:08:42;;;;;;;6.13;5.50;;;12.40;79.00;;;;;;5019236;28;20583;-65
2023/04/21 06:11:10;;;;;;;5.93;5.23;;;12.40;79.00;;;;;;4999643;28;20448;-66
2023/04/21 06:13:38;;;;;;;6.67;5.60;;;12.40;79.00;;;;;;5005983;28;20508;-65
2023/04/21 06:16:10;;;;;;;6.73;5.00;;;12.30;79.00;;;;;;5002213;28;20535;-66
2023/04/21 06:18:38;;;;;;;6.60;5.37;;;12.30;78.90;;;;;;5021466;28;20541;-65
2023/04/21 06:21:07;;;;;;;5.53;5.00;;;12.30;79.10;;;;;;5014749;28;20447;-65
2023/04/21 06:23:36;;;;;;;5.90;5.30;;;12.40;79.10;;;;;;5022129;28;20476;-65
2023/04/21 06:26:06;;;;;;;6.73;5.40;;;12.30;78.90;;;;;;5021359;28;20972;-65
2023/04/21 06:28:36;;;;;;;6.07;5.47;;;12.30;78.90;;;;;;5005228;28;20471;-65
2023/04/21 06:31:04;;;;;;;6.17;5.43;;;12.30;78.90;;;;;;5020128;28;21012;-66
2023/04/21 06:33:36;;;;;;;7.70;6.40;;;12.30;79.10;;;;;;5021001;28;20576;-65
2023/04/21 06:36:05;;;;;;;5.23;4.73;;;12.30;79.30;;;;;;5005347;28;20469;-66
2023/04/21 06:38:33;;;;;;;6.63;6.00;;;12.30;79.30;;;;;;5005654;28;20567;-66
2023/04/21 06:41:03;;;;;;;6.20;5.60;;;12.40;79.60;;;;;;5021823;28;20464;-64
2023/04/21 06:43:32;;;;;;;8.07;6.40;;;12.40;79.50;;;;;;5022091;28;20472;-65
2023/04/21 06:46:00;;;;;;;10.27;8.77;;;12.30;79.50;;;;;;5022290;28;20721;-66
2023/04/21 06:48:29;;;;;;;10.37;8.30;;;12.40;80.40;;;;;;5006327;28;20996;-65
2023/04/21 06:50:59;;;;;;;9.67;7.10;;;12.40;80.60;;;;;;5000023;28;20898;-64
2023/04/21 06:53:27;;;;;;;5.40;4.90;;;12.40;80.30;;;;;;5022383;28;20537;-64
2023/04/21 06:55:56;;;;;;;6.50;5.80;;;12.40;79.90;;;;;;4997870;28;20495;-64
2023/04/21 06:58:26;;;;;;;6.53;5.83;;;12.40;79.80;;;;;;5022150;28;20468;-65
2023/04/21 07:00:54;;;;;;;6.73;5.00;;;12.40;79.80;;;;;;5021986;28;20476;-64
2023/04/21 07:03:23;;;;;;;8.47;6.60;;;12.40;79.60;;;;;;5020365;28;20850;-65
2023/04/21 07:05:52;;;;;;;5.97;5.30;;;12.40;79.70;;;;;;4999257;28;20655;-64
2023/04/21 07:08:20;;;;;;;6.40;5.43;;;12.50;79.70;;;;;;5021797;28;20923;-66
2023/04/21 07:10:48;;;;;;;5.80;5.30;;;12.50;79.80;;;;;;5005576;28;20511;-65
2023/04/21 07:13:17;;;;;;;5.40;4.70;;;12.50;79.30;;;;;;5021318;28;20475;-66
2023/04/21 07:15:47;;;;;;;5.90;4.60;;;12.50;79.30;;;;;;5021592;28;20416;-64
2023/04/21 07:18:16;;;;;;;5.37;4.87;;;12.50;79.20;;;;;;5020376;28;20487;-64
2023/04/21 07:20:44;;;;;;;5.83;5.10;;;12.50;79.20;;;;;;5005813;28;20506;-64
2023/04/21 07:23:13;;;;;;;6.33;5.73;;;12.50;79.20;;;;;;5023590;28;20491;-64
2023/04/21 07:25:41;;;;;;;6.90;5.53;;;12.50;79.40;;;;;;5015148;28;20550;-65
2023/04/21 07:28:09;;;;;;;4.90;4.37;;;12.50;79.50;;;;;;5021382;28;20460;-64
2023/04/21 07:30:38;;;;;;;6.43;5.83;;;12.50;79.40;;;;;;5010715;28;20456;-66
2023/04/21 07:33:09;;;;;;;6.83;5.30;;;12.50;79.40;;;;;;5024394;28;20534;-65
2023/04/21 07:35:37;;;;;;;6.97;6.27;;;12.50;79.20;;;;;;5009253;28;20430;-65
2023/04/21 07:38:06;;;;;;;6.50;5.90;;;12.50;79.20;;;;;;5008399;28;20464;-65
2023/04/21 07:40:35;;;;;;;5.93;5.33;;;12.50;79.40;;;;;;5024800;28;20547;-64
2023/04/21 07:43:03;;;;;;;5.70;5.20;;;12.50;79.30;;;;;;5010469;28;20483;-65
2023/04/21 07:45:32;;;;;;;6.57;5.93;;;12.60;79.20;;;;;;5025970;28;20495;-64
2023/04/21 07:48:00;;;;;;;5.73;4.93;;;12.50;79.00;;;;;;5022080;28;20470;-64
2023/04/21 07:50:30;;;;;;;5.23;4.73;;;12.60;79.10;;;;;;5008068;28;20463;-64
2023/04/21 07:53:00;;;;;;;5.60;5.10;;;12.60;79.10;;;;;;4999736;28;20493;-66
2023/04/21 07:55:29;;;;;;;10.60;5.90;;;12.60;78.90;;;;;;5021741;28;20451;-66
2023/04/21 07:57:57;;;;;;;5.77;5.13;;;12.60;78.90;;;;;;5013681;28;21234;-65
2023/04/21 08:00:26;;;;;;;5.37;4.87;;;12.60;79.00;;;;;;5023931;28;20467;-65
2023/04/21 08:02:54;;;;;;;4.57;4.17;;;12.60;78.90;;;;;;5023769;28;21239;-64
2023/04/21 08:05:23;;;;;;;7.03;5.60;;;12.60;78.90;;;;;;5008505;28;20461;-64
2023/04/21 08:07:55;;;;;;;5.77;5.20;;;12.60;78.80;;;;;;5007844;28;20468;-64
2023/04/21 08:10:24;;;;;;;5.90;5.10;;;12.60;78.70;;;;;;5005403;28;20475;-65
2023/04/21 08:12:53;;;;;;;4.90;4.30;;;12.60;78.70;;;;;;5018546;28;20533;-65
2023/04/21 08:15:21;;;;;;;6.23;5.13;;;12.60;78.80;;;;;;5025026;28;20470;-65
2023/04/21 08:17:50;;;;;;;5.17;4.67;;;12.60;78.80;;;;;;5006908;28;20564;-65
2023/04/21 08:20:19;;;;;;;5.77;4.77;;;12.70;78.90;;;;;;5008315;28;20548;-66
2023/04/21 08:22:47;;;;;;;5.23;4.73;;;12.60;78.90;;;;;;5016036;28;20988;-65
2023/04/21 08:25:17;;;;;;;4.80;4.20;;;12.60;78.90;;;;;;5020813;28;20543;-65
2023/04/21 08:27:45;;;;;;;4.40;4.00;;;12.60;78.90;;;;;;5023484;28;20460;-66
2023/04/21 08:30:15;;;;;;;4.90;4.40;;;12.60;78.90;;;;;;5021560;28;20487;-64
2023/04/21 08:32:43;;;;;;;6.13;5.10;;;12.60;79.20;;;;;;5025656;28;20566;-65
2023/04/21 08:35:12;;;;;;;5.70;4.80;;;12.60;78.90;;;;;;5025232;28;20452;-65
2023/04/21 08:37:40;;;;;;;4.93;4.33;;;12.60;78.90;;;;;;5025002;28;20444;-65
2023/04/21 08:40:10;;;;;;;5.40;4.77;;;12.60;78.90;;;;;;5015099;28;20487;-64
2023/04/21 08:42:40;;;;;;;5.73;5.10;;;12.60;79.00;;;;;;5004878;28;20482;-65
2023/04/21 08:45:09;;;;;;;5.07;4.17;;;12.60;79.00;;;;;;5019652;28;20461;-65
2023/04/21 08:47:40;;;;;;;4.93;4.43;;;12.60;79.00;;;;;;4997344;28;20447;-65
2023/04/21 08:50:13;;;;;;;4.90;4.40;;;12.60;79.00;;;;;;5007165;28;20838;-64
2023/04/21 08:52:42;;;;;;;4.53;4.13;;;12.60;78.90;;;;;;5021588;28;20879;-65
2023/04/21 08:55:14;;;;;;;5.00;4.50;;;12.60;78.90;;;;;;5023811;28;20456;-65
2023/04/21 08:57:44;;;;;;;5.77;4.80;;;12.70;79.00;;;;;;5002789;28;20553;-65
2023/04/21 09:00:13;;;;;;;5.90;4.93;;;12.70;78.90;;;;;;5007716;28;20972;-65
2023/04/21 09:02:56;;;;;;;4.53;4.00;;;12.70;78.90;;;;;;5023010;28;20435;-64
2023/04/21 09:05:31;;;;;;;5.23;4.33;;;12.70;78.90;;;;;;5006004;28;20464;-64
2023/04/21 09:08:09;;;;;;;4.27;3.87;;;12.70;78.90;;;;;;5016781;28;20579;-65
2023/04/21 09:10:45;;;;;;;4.37;3.97;;;12.70;78.90;;;;;;5006664;28;20477;-65
2023/04/21 09:13:16;;;;;;;5.10;4.60;;;12.70;79.00;;;;;;5016255;28;20484;-65
2023/04/21 09:15:46;;;;;;;6.13;4.50;;;12.70;79.00;;;;;;5023071;28;20464;-64
2023/04/21 09:18:16;;;;;;;5.77;4.77;;;12.70;79.00;;;;;;5030992;28;20996;-65
2023/04/21 09:20:46;;;;;;;5.03;4.17;;;12.70;79.00;;;;;;5023409;28;20563;-65
2023/04/21 09:23:15;;;;;;;4.40;4.00;;;12.70;79.00;;;;;;5015939;28;20530;-64
2023/04/21 09:25:45;;;;;;;5.27;4.40;;;12.70;79.10;;;;;;4999981;28;20783;-64
2023/04/21 09:28:15;;;;;;;4.90;4.17;;;12.70;79.10;;;;;;5007323;28;20666;-65
2023/04/21 09:30:43;;;;;;;5.23;4.40;;;12.70;79.00;;;;;;5023042;28;20472;-73
2023/04/21 09:33:16;;;;;;;5.07;4.30;;;12.70;79.00;;;;;;4995574;28;20484;-72
2023/04/21 09:36:02;;;;;;;4.63;4.13;;;12.70;79.00;;;;;;5006358;28;20444;-73
2023/04/21 09:38:32;;;;;;;4.80;4.07;;;12.70;79.10;;;;;;5023417;28;21019;-73
2023/04/21 09:44:00;;;;;;;4.83;3.80;;;12.70;79.00;;;;;;4833182;26;20455;-45
2023/04/21 09:46:32;;;;;;;5.37;4.23;;;12.70;79.10;;;;;;5024555;28;20476;-46
2023/04/21 09:49:01;;;;;;;4.90;4.20;;;12.70;79.00;;;;;;5020032;28;20476;-45
2023/04/21 09:51:31;;;;;;;5.93;3.97;;;12.70;79.10;;;;;;5023995;28;20448;-45
2023/04/21 09:54:21;;;;;;;4.70;4.20;;;12.70;79.10;;;;;;5021197;28;20911;-45
2023/04/21 09:56:58;;;;;;;5.30;4.80;;;12.70;79.10;;;;;;5028621;28;20418;-45
2023/04/21 10:05:14;;;;;;;4.57;4.17;;;12.70;79.20;;;;;;4949833;23;20491;-74
2023/04/21 10:07:50;;;;;;;4.10;3.40;;;12.70;79.20;;;;;;5183147;23;20506;-74
2023/04/21 10:13:01;;;;;;;4.37;3.83;;;12.70;79.20;;;;;;4846076;29;20460;-68
2023/04/21 10:15:31;;;;;;;4.70;3.73;;;12.70;79.20;;;;;;4841083;29;20462;-73
2023/04/21 10:18:14;;;;;;;4.70;3.57;;;12.70;79.10;;;;;;4843786;29;21063;-74
2023/04/21 10:20:57;;;;;;;3.97;3.50;;;12.70;79.30;;;;;;4841498;29;20435;-74
2023/04/21 10:23:30;;;;;;;4.60;3.93;;;12.70;79.20;;;;;;4848967;29;20507;-74
2023/04/21 10:26:11;;;;;;;4.43;3.67;;;12.70;79.20;;;;;;4838445;29;20487;-74
2023/04/21 10:29:04;;;;;;;5.23;4.63;;;12.70;79.20;;;;;;4859062;29;20477;-74
2023/04/21 10:31:34;;;;;;;5.63;3.67;;;12.70;79.30;;;;;;4846895;29;20518;-73
2023/04/21 10:34:20;;;;;;;4.83;3.90;;;12.70;79.30;;;;;;4838687;29;20488;-75
2023/04/21 10:37:14;;;;;;;4.50;3.70;;;12.70;79.40;;;;;;4843212;29;20448;-74
2023/04/21 10:39:47;;;;;;;3.93;3.40;;;12.70;79.40;;;;;;4839388;29;20539;-74
2023/04/21 10:42:29;;;;;;;5.00;4.10;;;12.70;79.60;;;;;;4856161;29;20466;-74
2023/04/21 10:45:09;;;;;;;4.37;3.63;;;12.70;79.50;;;;;;4840947;29;20501;-73
2023/04/21 10:47:41;;;;;;;4.47;3.97;;;12.70;79.50;;;;;;4831984;29;20595;-73
2023/04/21 10:50:14;;;;;;;5.53;4.30;;;12.80;79.60;;;;;;4845366;29;20904;-74
2023/04/21 10:52:56;;;;;;;6.47;4.50;;;12.80;79.60;;;;;;4840704;29;20475;-69
2023/04/21 10:55:29;;;;;;;4.70;4.17;;;12.80;79.70;;;;;;4846280;29;20453;-69
2023/04/21 10:58:02;;;;;;;5.00;3.97;;;12.80;79.70;;;;;;4839700;29;20854;-69
2023/04/21 11:00:31;;;;;;;10.07;5.40;;;12.80;79.60;;;;;;4839981;29;20527;-69
2023/04/21 11:03:02;;;;;;;4.87;4.23;;;12.80;79.60;;;;;;4837562;29;20457;-70
2023/04/21 11:05:35;;;;;;;5.10;3.70;;;12.80;79.60;;;;;;4843250;29;20451;-69
2023/04/21 11:08:11;;;;;;;4.50;3.43;;;12.80;79.60;;;;;;4851992;29;20434;-69
2023/04/21 11:11:02;;;;;;;5.53;3.93;;;12.80;79.80;;;;;;4860827;29;20452;-69
2023/04/21 11:13:33;;;;;;;4.63;4.07;;;12.80;80.00;;;;;;4850921;29;20468;-74
2023/04/21 11:16:05;;;;;;;4.53;3.97;;;12.80;80.00;;;;;;4833943;29;20468;-69
2023/04/21 11:18:38;;;;;;;4.03;3.60;;;12.80;79.90;;;;;;4842151;29;20483;-69
2023/04/21 11:21:12;;;;;;;6.50;3.83;;;12.80;79.80;;;;;;4850767;29;20524;-73
2023/04/21 11:23:47;;;;;;;4.40;3.73;;;12.80;79.80;;;;;;4845633;29;20478;-69
2023/04/21 11:26:16;;;;;;;4.20;3.37;;;12.80;79.70;;;;;;4850326;29;20494;-69
2023/04/21 11:28:49;;;;;;;4.70;3.43;;;12.80;79.80;;;;;;4854453;29;21003;-74
2023/04/21 11:31:24;;;;;;;4.17;3.33;;;12.80;79.90;;;;;;4860075;29;20463;-70
2023/04/21 11:33:52;;;;;;;3.33;2.90;;;12.80;80.00;;;;;;4850868;29;20488;-74
2023/04/21 11:36:23;;;;;;;5.40;3.90;;;12.80;80.00;;;;;;4852777;29;20962;-74
2023/04/21 11:38:55;;;;;;;3.73;3.37;;;12.80;80.00;;;;;;4834164;29;20491;-74
2023/04/21 11:41:25;;;;;;;4.00;3.40;;;12.80;80.00;;;;;;4822758;29;21673;-74
2023/04/21 11:43:53;;;;;;;4.87;4.30;;;12.80;80.10;;;;;;4843287;29;20493;-75
2023/04/21 11:46:24;;;;;;;4.90;4.50;;;12.80;80.10;;;;;;4848905;29;20904;-75
2023/04/21 11:49:01;;;;;;;4.80;4.07;;;12.80;80.00;;;;;;4840309;29;20477;-75
2023/04/21 11:51:35;;;;;;;4.30;3.90;;;12.80;80.00;;;;;;4852225;29;20485;-75
2023/04/21 11:54:06;;;;;;;6.83;4.60;;;12.80;80.20;;;;;;4855909;29;21022;-75
2023/04/21 11:56:36;;;;;;;5.70;4.40;;;12.80;80.20;;;;;;4859508;29;20518;-69
2023/04/21 11:59:09;;;;;;;6.00;4.70;;;12.80;80.40;;;;;;4837961;29;20464;-69
2023/04/21 12:01:43;;;;;;;4.40;4.00;;;12.80;80.50;;;;;;4858679;29;20466;-69
2023/04/21 12:04:16;;;;;;;4.17;3.77;;;12.80;80.50;;;;;;4842184;29;20501;-69
2023/04/21 12:06:46;;;;;;;4.70;4.07;;;12.90;80.70;;;;;;4848139;29;20898;-69
2023/04/21 12:09:20;;;;;;;3.97;3.30;;;12.80;80.40;;;;;;4872912;29;20474;-69
2023/04/21 12:11:49;;;;;;;5.07;4.57;;;12.80;80.50;;;;;;4847921;29;20577;-69
2023/04/21 12:14:20;;;;;;;4.73;3.50;;;12.80;80.50;;;;;;4855314;29;20468;-74
2023/04/21 12:16:50;;;;;;;4.97;4.23;;;12.80;80.50;;;;;;4854126;29;20447;-75
2023/04/21 12:19:35;;;;;;;5.00;4.17;;;12.80;80.60;;;;;;4858718;29;20467;-74
2023/04/21 12:22:08;;;;;;;4.20;3.33;;;12.90;81.90;;;;;;4864265;29;20469;-74
2023/04/21 12:24:39;;;;;;;3.60;3.00;;;12.90;80.60;;;;;;4867533;29;20464;-74
2023/04/21 12:27:08;;;;;;;4.30;3.70;;;12.90;80.70;;;;;;4852494;29;20484;-74
2023/04/21 12:29:37;;;;;;;4.10;3.10;;;12.90;80.80;;;;;;4855547;29;20472;-74
2023/04/21 12:32:06;;;;;;;5.43;4.60;;;12.90;80.80;;;;;;4861226;29;20923;-74
2023/04/21 12:34:35;;;;;;;4.13;3.73;;;12.90;80.70;;;;;;4874559;29;20444;-74
2023/04/21 12:37:04;;;;;;;4.77;4.27;;;12.90;80.60;;;;;;4842620;29;20463;-69
2023/04/21 12:39:34;;;;;;;4.63;4.17;;;12.90;80.60;;;;;;4861882;29;21155;-70
2023/04/21 12:42:06;;;;;;;4.00;3.30;;;12.90;80.20;;;;;;4850321;29;20476;-69
2023/04/21 12:44:34;;;;;;;3.70;3.40;;;12.90;80.50;;;;;;4861718;29;20730;-69
2023/04/21 12:47:03;;;;;;;4.60;3.33;;;12.90;80.50;;;;;;4839120;29;20909;-69
2023/04/21 12:49:31;;;;;;;6.27;4.50;;;12.90;80.60;;;;;;4854655;29;20970;-69
2023/04/21 12:52:00;;;;;;;6.20;3.23;;;13.00;80.70;;;;;;4837573;29;20563;-69
2023/04/21 12:54:29;;;;;;;4.10;3.70;;;12.90;80.50;;;;;;4832392;29;20464;-69
2023/04/21 12:56:58;;;;;;;4.20;3.80;;;13.00;80.50;;;;;;4847943;29;20489;-69
2023/04/21 12:59:28;;;;;;;4.20;3.77;;;12.90;80.30;;;;;;4865469;29;20465;-69
2023/04/21 13:01:57;;;;;;;4.43;3.40;;;13.00;79.60;;;;;;4850324;29;20448;-69
2023/04/21 13:04:26;;;;;;;3.80;3.37;;;13.00;79.40;;;;;;4860528;29;20545;-69
2023/04/21 13:06:55;;;;;;;4.00;3.33;;;13.00;79.70;;;;;;4852123;29;20471;-69
2023/04/21 13:09:24;;;;;;;4.60;4.00;;;13.00;79.40;;;;;;4874082;29;20981;-68
2023/04/21 13:11:53;;;;;;;2.93;2.63;;;13.00;79.40;;;;;;4860695;29;20566;-69